San Antonio, Florida
Current Conditions -  °F | °C
As of 4:35 PM on Wednesday 17 Dec 2014 (Local Time) from KZPH Reporting Station
Clear Clear  
Wind Chill: 70°   Ceiling: Unl
Heat Index: 70°   Visibility: 10mi
Dew Point: 37°   Wind: 10mph
Humidity: 31%   Direction: 280°W
Pressure: 30.13"   Gusts: NA
Location:  28.34°N, 82.27°W
Report Text: KZPH 172135Z AUTO 28009KT 10SM CLR 21/03 A3013 RMK AO2
Loading
Personal Weather Stations






























Interactive Weather Map New forecast layout! Learn more

10-Day Weather Forecast

Advertisements
Track Severe Weather on mobile